sensor_id;sensor_type;location;lat;lon;timestamp;temperature;humidity
13205;DHT22;6667;52.634;9.226;2023-12-22T09:04:43;5.60;99.90
13205;DHT22;6667;52.634;9.226;2023-12-22T09:07:09;5.60;99.90
13205;DHT22;6667;52.634;9.226;2023-12-22T09:09:36;5.60;99.90
13205;DHT22;6667;52.634;9.226;2023-12-22T09:12:03;5.60;99.90
13205;DHT22;6667;52.634;9.226;2023-12-22T09:14:30;5.60;99.90
13205;DHT22;6667;52.634;9.226;2023-12-22T09:16:56;5.60;99.90
13205;DHT22;6667;52.634;9.226;2023-12-22T09:19:23;5.70;99.90
13205;DHT22;6667;52.634;9.226;2023-12-22T09:21:51;5.80;99.90
13205;DHT22;6667;52.634;9.226;2023-12-22T09:24:18;6.00;99.90
13205;DHT22;6667;52.634;9.226;2023-12-22T09:26:43;6.20;99.90
13205;DHT22;6667;52.634;9.226;2023-12-22T09:29:10;6.10;99.90
13205;DHT22;6667;52.634;9.226;2023-12-22T09:31:36;6.00;99.90
13205;DHT22;6667;52.634;9.226;2023-12-22T09:34:03;6.00;99.90
13205;DHT22;6667;52.634;9.226;2023-12-22T09:36:29;6.00;99.90
13205;DHT22;6667;52.634;9.226;2023-12-22T09:38:57;6.10;99.90
13205;DHT22;6667;52.634;9.226;2023-12-22T09:41:24;6.10;99.90
13205;DHT22;6667;52.634;9.226;2023-12-22T09:43:52;6.10;99.90
13205;DHT22;6667;52.634;9.226;2023-12-22T09:46:21;6.00;99.90
13205;DHT22;6667;52.634;9.226;2023-12-22T09:48:48;6.00;99.90
13205;DHT22;6667;52.634;9.226;2023-12-22T09:51:17;6.00;99.90
13205;DHT22;6667;52.634;9.226;2023-12-22T09:53:45;5.90;99.90
13205;DHT22;6667;52.634;9.226;2023-12-22T09:56:14;5.90;99.90
13205;DHT22;6667;52.634;9.226;2023-12-22T09:58:41;5.90;99.90
13205;DHT22;6667;52.634;9.226;2023-12-22T10:01:08;5.90;99.90
13205;DHT22;6667;52.634;9.226;2023-12-22T10:03:37;5.90;99.90
13205;DHT22;6667;52.634;9.226;2023-12-22T10:06:04;5.90;99.90
13205;DHT22;6667;52.634;9.226;2023-12-22T10:08:32;5.80;99.90
13205;DHT22;6667;52.634;9.226;2023-12-22T10:10:59;5.80;99.90
13205;DHT22;6667;52.634;9.226;2023-12-22T10:13:27;5.80;99.90
13205;DHT22;6667;52.634;9.226;2023-12-22T10:15:54;5.80;99.90
13205;DHT22;6667;52.634;9.226;2023-12-22T10:18:21;5.80;99.90
13205;DHT22;6667;52.634;9.226;2023-12-22T10:20:48;5.70;99.90
13205;DHT22;6667;52.634;9.226;2023-12-22T10:23:15;5.60;99.90
13205;DHT22;6667;52.634;9.226;2023-12-22T10:25:41;5.50;99.90
13205;DHT22;6667;52.634;9.226;2023-12-22T10:28:10;5.40;99.90
13205;DHT22;6667;52.634;9.226;2023-12-22T10:30:40;5.30;99.90
13205;DHT22;6667;52.634;9.226;2023-12-22T10:33:07;5.30;99.90
13205;DHT22;6667;52.634;9.226;2023-12-22T10:35:33;5.40;99.90
13205;DHT22;6667;52.634;9.226;2023-12-22T10:38:00;5.40;99.90
13205;DHT22;6667;52.634;9.226;2023-12-22T10:40:27;5.40;99.90
13205;DHT22;6667;52.634;9.226;2023-12-22T10:42:53;5.40;99.90
13205;DHT22;6667;52.634;9.226;2023-12-22T10:45:20;5.40;99.90
13205;DHT22;6667;52.634;9.226;2023-12-22T10:47:49;5.40;99.90
13205;DHT22;6667;52.634;9.226;2023-12-22T10:50:19;5.50;99.90
13205;DHT22;6667;52.634;9.226;2023-12-22T10:52:49;5.50;99.90
13205;DHT22;6667;52.634;9.226;2023-12-22T10:55:16;5.50;99.90
13205;DHT22;6667;52.634;9.226;2023-12-22T10:57:45;5.60;99.90
13205;DHT22;6667;52.634;9.226;2023-12-22T11:00:15;5.60;99.90
13205;DHT22;6667;52.634;9.226;2023-12-22T11:02:43;5.70;99.90
13205;DHT22;6667;52.634;9.226;2023-12-22T11:05:15;5.70;99.90
13205;DHT22;6667;52.634;9.226;2023-12-22T11:07:48;5.70;99.90
13205;DHT22;6667;52.634;9.226;2023-12-22T11:10:19;5.70;99.90
13205;DHT22;6667;52.634;9.226;2023-12-22T11:12:47;5.80;99.90
13205;DHT22;6667;52.634;9.226;2023-12-22T11:15:15;5.80;99.90
13205;DHT22;6667;52.634;9.226;2023-12-22T11:17:42;5.80;99.90
13205;DHT22;6667;52.634;9.226;2023-12-22T11:20:10;6.00;99.90
13205;DHT22;6667;52.634;9.226;2023-12-22T11:22:40;5.90;99.90
13205;DHT22;6667;52.634;9.226;2023-12-22T11:25:08;6.00;99.90
13205;DHT22;6667;52.634;9.226;2023-12-22T11:27:37;6.00;99.90
13205;DHT22;6667;52.634;9.226;2023-12-22T11:30:05;6.10;99.90
13205;DHT22;6667;52.634;9.226;2023-12-22T11:32:34;6.20;99.90
13205;DHT22;6667;52.634;9.226;2023-12-22T11:35:00;6.30;99.90
13205;DHT22;6667;52.634;9.226;2023-12-22T11:37:30;6.40;99.90
13205;DHT22;6667;52.634;9.226;2023-12-22T11:39:58;6.40;99.90
13205;DHT22;6667;52.634;9.226;2023-12-22T11:42:28;6.50;99.90
13205;DHT22;6667;52.634;9.226;2023-12-22T11:44:57;6.50;99.90
13205;DHT22;6667;52.634;9.226;2023-12-22T11:47:24;6.50;99.90
13205;DHT22;6667;52.634;9.226;2023-12-22T11:49:51;6.50;99.90
13205;DHT22;6667;52.634;9.226;2023-12-22T11:52:24;6.50;99.90
13205;DHT22;6667;52.634;9.226;2023-12-22T11:54:52;6.50;99.90
13205;DHT22;6667;52.634;9.226;2023-12-22T11:57:34;6.50;99.90
13205;DHT22;6667;52.634;9.226;2023-12-22T12:00:03;6.60;99.90
13205;DHT22;6667;52.634;9.226;2023-12-22T12:02:32;6.60;99.90
13205;DHT22;6667;52.634;9.226;2023-12-22T12:04:59;6.60;99.90
13205;DHT22;6667;52.634;9.226;2023-12-22T12:07:40;6.60;99.90
13205;DHT22;6667;52.634;9.226;2023-12-22T12:10:07;6.60;99.90
13205;DHT22;6667;52.634;9.226;2023-12-22T12:12:35;6.50;99.90
13205;DHT22;6667;52.634;9.226;2023-12-22T12:15:08;6.60;99.90
13205;DHT22;6667;52.634;9.226;2023-12-22T12:17:38;6.60;99.90
13205;DHT22;6667;52.634;9.226;2023-12-22T12:20:06;6.60;99.90
13205;DHT22;6667;52.634;9.226;2023-12-22T12:22:33;6.60;99.90
13205;DHT22;6667;52.634;9.226;2023-12-22T12:25:00;6.60;99.90
13205;DHT22;6667;52.634;9.226;2023-12-22T12:27:27;6.60;99.90
13205;DHT22;6667;52.634;9.226;2023-12-22T12:29:55;6.60;99.90
13205;DHT22;6667;52.634;9.226;2023-12-22T12:32:23;6.60;99.90
13205;DHT22;6667;52.634;9.226;2023-12-22T12:34:50;6.60;99.90
13205;DHT22;6667;52.634;9.226;2023-12-22T12:37:18;6.70;99.90
13205;DHT22;6667;52.634;9.226;2023-12-22T12:39:46;6.70;99.90
13205;DHT22;6667;52.634;9.226;2023-12-22T12:42:15;6.70;99.90
13205;DHT22;6667;52.634;9.226;2023-12-22T12:44:43;6.70;99.90
13205;DHT22;6667;52.634;9.226;2023-12-22T12:47:15;6.70;99.90
13205;DHT22;6667;52.634;9.226;2023-12-22T12:49:42;6.70;99.90
13205;DHT22;6667;52.634;9.226;2023-12-22T12:52:12;6.70;99.90
13205;DHT22;6667;52.634;9.226;2023-12-22T12:54:39;6.70;99.90
13205;DHT22;6667;52.634;9.226;2023-12-22T12:57:06;6.70;99.90
13205;DHT22;6667;52.634;9.226;2023-12-22T12:59:33;6.70;99.90
13205;DHT22;6667;52.634;9.226;2023-12-22T13:02:00;6.70;99.90
13205;DHT22;6667;52.634;9.226;2023-12-22T13:04:37;6.70;99.90
13205;DHT22;6667;52.634;9.226;2023-12-22T13:07:04;6.70;99.90
13205;DHT22;6667;52.634;9.226;2023-12-22T13:09:32;6.70;99.90
13205;DHT22;6667;52.634;9.226;2023-12-22T13:11:59;6.70;99.90
13205;DHT22;6667;52.634;9.226;2023-12-22T13:14:26;6.70;99.90
13205;DHT22;6667;52.634;9.226;2023-12-22T13:16:53;6.70;99.90
13205;DHT22;6667;52.634;9.226;2023-12-22T13:19:22;6.70;99.90
13205;DHT22;6667;52.634;9.226;2023-12-22T13:21:51;6.70;99.90
13205;DHT22;6667;52.634;9.226;2023-12-22T13:24:19;6.70;99.90
13205;DHT22;6667;52.634;9.226;2023-12-22T13:26:46;6.70;99.90
13205;DHT22;6667;52.634;9.226;2023-12-22T13:29:13;6.70;99.90
13205;DHT22;6667;52.634;9.226;2023-12-22T13:31:41;6.70;99.90
13205;DHT22;6667;52.634;9.226;2023-12-22T13:34:12;6.70;99.90
13205;DHT22;6667;52.634;9.226;2023-12-22T13:36:39;6.70;99.90
13205;DHT22;6667;52.634;9.226;2023-12-22T13:39:09;6.70;99.90
13205;DHT22;6667;52.634;9.226;2023-12-22T13:41:39;6.70;99.90
13205;DHT22;6667;52.634;9.226;2023-12-22T13:44:07;6.70;99.90
13205;DHT22;6667;52.634;9.226;2023-12-22T13:46:34;6.70;99.90
13205;DHT22;6667;52.634;9.226;2023-12-22T13:49:02;6.70;99.90
13205;DHT22;6667;52.634;9.226;2023-12-22T13:51:38;6.70;99.90
13205;DHT22;6667;52.634;9.226;2023-12-22T13:54:05;6.70;99.90
13205;DHT22;6667;52.634;9.226;2023-12-22T13:56:34;6.70;99.90
13205;DHT22;6667;52.634;9.226;2023-12-22T13:59:02;6.70;99.90
13205;DHT22;6667;52.634;9.226;2023-12-22T14:01:29;6.70;99.90
13205;DHT22;6667;52.634;9.226;2023-12-22T14:03:56;6.60;99.90
13205;DHT22;6667;52.634;9.226;2023-12-22T14:06:24;6.60;99.90
13205;DHT22;6667;52.634;9.226;2023-12-22T14:08:50;6.60;99.90
13205;DHT22;6667;52.634;9.226;2023-12-22T14:11:17;6.60;99.90
13205;DHT22;6667;52.634;9.226;2023-12-22T14:13:45;6.50;99.90
13205;DHT22;6667;52.634;9.226;2023-12-22T14:16:11;6.50;99.90
13205;DHT22;6667;52.634;9.226;2023-12-22T14:18:39;6.50;99.90
13205;DHT22;6667;52.634;9.226;2023-12-22T14:21:05;6.50;99.90
13205;DHT22;6667;52.634;9.226;2023-12-22T14:23:32;6.50;99.90
13205;DHT22;6667;52.634;9.226;2023-12-22T14:25:59;6.50;99.90
13205;DHT22;6667;52.634;9.226;2023-12-22T14:28:25;6.50;99.90
13205;DHT22;6667;52.634;9.226;2023-12-22T14:30:54;6.50;99.90
13205;DHT22;6667;52.634;9.226;2023-12-22T14:33:21;6.50;99.90
13205;DHT22;6667;52.634;9.226;2023-12-22T14:35:47;6.50;99.90
13205;DHT22;6667;52.634;9.226;2023-12-22T14:38:14;6.50;99.90
13205;DHT22;6667;52.634;9.226;2023-12-22T14:40:40;6.50;99.90
13205;DHT22;6667;52.634;9.226;2023-12-22T14:43:07;6.50;99.90
13205;DHT22;6667;52.634;9.226;2023-12-22T14:45:33;6.50;99.90
13205;DHT22;6667;52.634;9.226;2023-12-22T14:48:02;6.40;99.90
13205;DHT22;6667;52.634;9.226;2023-12-22T14:50:29;6.40;99.90
13205;DHT22;6667;52.634;9.226;2023-12-22T14:52:55;6.40;99.90
13205;DHT22;6667;52.634;9.226;2023-12-22T14:55:22;6.30;99.90
13205;DHT22;6667;52.634;9.226;2023-12-22T14:57:49;5.80;99.90
13205;DHT22;6667;52.634;9.226;2023-12-22T15:00:16;5.60;99.90
13205;DHT22;6667;52.634;9.226;2023-12-22T15:02:42;5.60;99.90
13205;DHT22;6667;52.634;9.226;2023-12-22T15:05:10;5.50;99.90
13205;DHT22;6667;52.634;9.226;2023-12-22T15:07:37;5.40;99.90
13205;DHT22;6667;52.634;9.226;2023-12-22T15:10:04;5.40;99.90
13205;DHT22;6667;52.634;9.226;2023-12-22T15:12:31;5.40;99.90
13205;DHT22;6667;52.634;9.226;2023-12-22T15:15:01;5.40;99.90
13205;DHT22;6667;52.634;9.226;2023-12-22T15:17:29;5.40;99.90
13205;DHT22;6667;52.634;9.226;2023-12-22T15:19:55;5.40;99.90
13205;DHT22;6667;52.634;9.226;2023-12-22T15:22:24;5.40;99.90
13205;DHT22;6667;52.634;9.226;2023-12-22T15:24:50;5.40;99.90
13205;DHT22;6667;52.634;9.226;2023-12-22T15:27:17;5.40;99.90
13205;DHT22;6667;52.634;9.226;2023-12-22T15:29:44;5.40;99.90
13205;DHT22;6667;52.634;9.226;2023-12-22T15:32:11;5.40;99.90
13205;DHT22;6667;52.634;9.226;2023-12-22T15:34:40;5.40;99.90
13205;DHT22;6667;52.634;9.226;2023-12-22T15:37:07;5.40;99.90
13205;DHT22;6667;52.634;9.226;2023-12-22T15:39:35;5.40;99.90
13205;DHT22;6667;52.634;9.226;2023-12-22T15:42:02;5.40;99.90
13205;DHT22;6667;52.634;9.226;2023-12-22T15:44:28;5.40;99.90
13205;DHT22;6667;52.634;9.226;2023-12-22T15:46:55;5.30;99.90
13205;DHT22;6667;52.634;9.226;2023-12-22T15:49:22;5.30;99.90
13205;DHT22;6667;52.634;9.226;2023-12-22T15:51:48;5.30;99.90
13205;DHT22;6667;52.634;9.226;2023-12-22T15:54:18;5.30;99.90
13205;DHT22;6667;52.634;9.226;2023-12-22T15:56:47;5.30;99.90
13205;DHT22;6667;52.634;9.226;2023-12-22T15:59:13;5.30;99.90
13205;DHT22;6667;52.634;9.226;2023-12-22T16:01:43;5.20;99.90
13205;DHT22;6667;52.634;9.226;2023-12-22T16:04:10;5.20;99.90
13205;DHT22;6667;52.634;9.226;2023-12-22T16:06:37;5.20;99.90
13205;DHT22;6667;52.634;9.226;2023-12-22T16:09:03;5.20;99.90
13205;DHT22;6667;52.634;9.226;2023-12-22T16:11:30;5.20;99.90
13205;DHT22;6667;52.634;9.226;2023-12-22T16:13:59;5.20;99.90
13205;DHT22;6667;52.634;9.226;2023-12-22T16:16:26;5.30;99.90
13205;DHT22;6667;52.634;9.226;2023-12-22T16:18:52;5.20;99.90
13205;DHT22;6667;52.634;9.226;2023-12-22T16:21:19;5.30;99.90
13205;DHT22;6667;52.634;9.226;2023-12-22T16:23:46;5.30;99.90
13205;DHT22;6667;52.634;9.226;2023-12-22T16:26:13;5.30;99.90
13205;DHT22;6667;52.634;9.226;2023-12-22T16:28:44;5.30;99.90
13205;DHT22;6667;52.634;9.226;2023-12-22T16:31:12;5.20;99.90
13205;DHT22;6667;52.634;9.226;2023-12-22T16:33:39;5.30;99.90
13205;DHT22;6667;52.634;9.226;2023-12-22T16:36:08;5.30;99.90
13205;DHT22;6667;52.634;9.226;2023-12-22T16:38:35;5.30;99.90
13205;DHT22;6667;52.634;9.226;2023-12-22T16:41:02;5.30;99.90
13205;DHT22;6667;52.634;9.226;2023-12-22T16:43:29;5.30;99.90
13205;DHT22;6667;52.634;9.226;2023-12-22T16:45:56;5.30;99.90
13205;DHT22;6667;52.634;9.226;2023-12-22T16:48:24;5.30;99.90
13205;DHT22;6667;52.634;9.226;2023-12-22T16:50:50;5.30;99.90
13205;DHT22;6667;52.634;9.226;2023-12-22T16:53:17;5.30;99.90
13205;DHT22;6667;52.634;9.226;2023-12-22T16:55:44;5.30;99.90
13205;DHT22;6667;52.634;9.226;2023-12-22T16:58:11;5.30;99.90
13205;DHT22;6667;52.634;9.226;2023-12-22T17:00:37;5.30;99.90
13205;DHT22;6667;52.634;9.226;2023-12-22T17:03:04;5.30;99.90
13205;DHT22;6667;52.634;9.226;2023-12-22T17:05:32;5.30;99.90
13205;DHT22;6667;52.634;9.226;2023-12-22T17:07:58;5.30;99.90
13205;DHT22;6667;52.634;9.226;2023-12-22T17:10:25;5.30;99.90
13205;DHT22;6667;52.634;9.226;2023-12-22T17:12:52;5.30;99.90
13205;DHT22;6667;52.634;9.226;2023-12-22T17:15:19;5.30;99.90
13205;DHT22;6667;52.634;9.226;2023-12-22T17:17:45;5.30;99.90
13205;DHT22;6667;52.634;9.226;2023-12-22T17:20:12;5.40;99.90
13205;DHT22;6667;52.634;9.226;2023-12-22T17:22:40;5.40;99.90
13205;DHT22;6667;52.634;9.226;2023-12-22T17:25:07;5.40;99.90
13205;DHT22;6667;52.634;9.226;2023-12-22T17:27:34;5.40;99.90
13205;DHT22;6667;52.634;9.226;2023-12-22T17:30:00;5.40;99.90
13205;DHT22;6667;52.634;9.226;2023-12-22T17:32:27;5.40;99.90
13205;DHT22;6667;52.634;9.226;2023-12-22T17:34:54;5.40;99.90
13205;DHT22;6667;52.634;9.226;2023-12-22T17:37:20;5.40;99.90
13205;DHT22;6667;52.634;9.226;2023-12-22T17:39:48;5.40;99.90
13205;DHT22;6667;52.634;9.226;2023-12-22T17:42:15;5.50;99.90
13205;DHT22;6667;52.634;9.226;2023-12-22T17:44:41;5.50;99.90
13205;DHT22;6667;52.634;9.226;2023-12-22T17:47:08;5.50;99.90
13205;DHT22;6667;52.634;9.226;2023-12-22T17:49:35;5.50;99.90
13205;DHT22;6667;52.634;9.226;2023-12-22T17:52:01;5.50;99.90
13205;DHT22;6667;52.634;9.226;2023-12-22T17:54:30;5.50;99.90
13205;DHT22;6667;52.634;9.226;2023-12-22T17:56:58;5.50;99.90
13205;DHT22;6667;52.634;9.226;2023-12-22T17:59:27;5.50;99.90
13205;DHT22;6667;52.634;9.226;2023-12-22T18:01:54;5.50;99.90
13205;DHT22;6667;52.634;9.226;2023-12-22T18:04:23;5.50;99.90
13205;DHT22;6667;52.634;9.226;2023-12-22T18:06:50;5.50;99.90
13205;DHT22;6667;52.634;9.226;2023-12-22T18:09:16;5.50;99.90
13205;DHT22;6667;52.634;9.226;2023-12-22T18:11:43;5.50;99.90
13205;DHT22;6667;52.634;9.226;2023-12-22T18:14:12;5.50;99.90
13205;DHT22;6667;52.634;9.226;2023-12-22T18:16:39;5.60;99.90
13205;DHT22;6667;52.634;9.226;2023-12-22T18:19:05;5.60;99.90
13205;DHT22;6667;52.634;9.226;2023-12-22T18:21:32;5.50;99.90
13205;DHT22;6667;52.634;9.226;2023-12-22T18:23:58;5.50;99.90
13205;DHT22;6667;52.634;9.226;2023-12-22T18:26:25;5.50;99.90
13205;DHT22;6667;52.634;9.226;2023-12-22T18:28:52;5.40;99.90
13205;DHT22;6667;52.634;9.226;2023-12-22T18:31:20;5.40;99.90
13205;DHT22;6667;52.634;9.226;2023-12-22T18:33:46;5.40;99.90
13205;DHT22;6667;52.634;9.226;2023-12-22T18:36:13;5.40;99.90
13205;DHT22;6667;52.634;9.226;2023-12-22T18:38:40;5.40;99.90
13205;DHT22;6667;52.634;9.226;2023-12-22T18:41:08;5.40;99.90
13205;DHT22;6667;52.634;9.226;2023-12-22T18:43:34;5.40;99.90
13205;DHT22;6667;52.634;9.226;2023-12-22T18:46:01;5.40;99.90
13205;DHT22;6667;52.634;9.226;2023-12-22T18:48:29;5.40;99.90
13205;DHT22;6667;52.634;9.226;2023-12-22T18:50:55;5.30;99.90
13205;DHT22;6667;52.634;9.226;2023-12-22T18:53:22;5.30;99.90
13205;DHT22;6667;52.634;9.226;2023-12-22T18:55:49;5.30;99.90
13205;DHT22;6667;52.634;9.226;2023-12-22T18:58:15;5.30;99.90
13205;DHT22;6667;52.634;9.226;2023-12-22T19:00:44;5.30;99.90
13205;DHT22;6667;52.634;9.226;2023-12-22T19:03:11;5.30;99.90
13205;DHT22;6667;52.634;9.226;2023-12-22T19:05:39;5.30;99.90
13205;DHT22;6667;52.634;9.226;2023-12-22T19:08:05;5.30;99.90
13205;DHT22;6667;52.634;9.226;2023-12-22T19:10:32;5.30;99.90
13205;DHT22;6667;52.634;9.226;2023-12-22T19:12:58;5.30;99.90
13205;DHT22;6667;52.634;9.226;2023-12-22T19:15:25;5.30;99.90
13205;DHT22;6667;52.634;9.226;2023-12-22T19:17:52;5.30;99.90
13205;DHT22;6667;52.634;9.226;2023-12-22T19:20:19;5.30;99.90
13205;DHT22;6667;52.634;9.226;2023-12-22T19:22:48;5.30;99.90
13205;DHT22;6667;52.634;9.226;2023-12-22T19:25:14;5.20;99.90
13205;DHT22;6667;52.634;9.226;2023-12-22T19:27:41;5.20;99.90
13205;DHT22;6667;52.634;9.226;2023-12-22T19:30:10;5.20;99.90
13205;DHT22;6667;52.634;9.226;2023-12-22T19:32:36;5.20;99.90
13205;DHT22;6667;52.634;9.226;2023-12-22T19:35:04;5.20;99.90
13205;DHT22;6667;52.634;9.226;2023-12-22T19:37:30;5.20;99.90
13205;DHT22;6667;52.634;9.226;2023-12-22T19:40:00;5.20;99.90
13205;DHT22;6667;52.634;9.226;2023-12-22T19:42:28;5.20;99.90
13205;DHT22;6667;52.634;9.226;2023-12-22T19:44:55;5.20;99.90
13205;DHT22;6667;52.634;9.226;2023-12-22T19:47:21;5.20;99.90
13205;DHT22;6667;52.634;9.226;2023-12-22T19:49:48;5.10;99.90
13205;DHT22;6667;52.634;9.226;2023-12-22T19:52:14;5.10;99.90
13205;DHT22;6667;52.634;9.226;2023-12-22T19:54:41;5.10;99.90
13205;DHT22;6667;52.634;9.226;2023-12-22T19:57:09;5.20;99.90
13205;DHT22;6667;52.634;9.226;2023-12-22T19:59:36;5.20;99.90
13205;DHT22;6667;52.634;9.226;2023-12-22T20:02:04;5.20;99.90
13205;DHT22;6667;52.634;9.226;2023-12-22T20:04:31;5.20;99.90
13205;DHT22;6667;52.634;9.226;2023-12-22T20:06:58;5.20;99.90
13205;DHT22;6667;52.634;9.226;2023-12-22T20:09:24;5.20;99.90
13205;DHT22;6667;52.634;9.226;2023-12-22T20:11:50;5.20;99.90
13205;DHT22;6667;52.634;9.226;2023-12-22T20:14:18;5.10;99.90
13205;DHT22;6667;52.634;9.226;2023-12-22T20:16:45;5.20;99.90
13205;DHT22;6667;52.634;9.226;2023-12-22T20:19:11;5.20;99.90
13205;DHT22;6667;52.634;9.226;2023-12-22T20:21:38;5.20;99.90
13205;DHT22;6667;52.634;9.226;2023-12-22T20:24:07;5.20;99.90
13205;DHT22;6667;52.634;9.226;2023-12-22T20:26:34;5.20;99.90
13205;DHT22;6667;52.634;9.226;2023-12-22T20:29:01;5.20;99.90
13205;DHT22;6667;52.634;9.226;2023-12-22T20:31:28;5.20;99.90
13205;DHT22;6667;52.634;9.226;2023-12-22T20:33:56;5.20;99.90
13205;DHT22;6667;52.634;9.226;2023-12-22T20:36:23;5.20;99.90
13205;DHT22;6667;52.634;9.226;2023-12-22T20:38:49;5.20;99.90
13205;DHT22;6667;52.634;9.226;2023-12-22T20:41:16;5.30;99.90
13205;DHT22;6667;52.634;9.226;2023-12-22T20:43:44;5.30;99.90
13205;DHT22;6667;52.634;9.226;2023-12-22T20:46:10;5.30;99.90
13205;DHT22;6667;52.634;9.226;2023-12-22T20:48:38;5.30;99.90
13205;DHT22;6667;52.634;9.226;2023-12-22T20:51:06;5.30;99.90
13205;DHT22;6667;52.634;9.226;2023-12-22T20:53:32;5.30;99.90
13205;DHT22;6667;52.634;9.226;2023-12-22T20:55:59;5.20;99.90
13205;DHT22;6667;52.634;9.226;2023-12-22T20:58:26;5.20;99.90
13205;DHT22;6667;52.634;9.226;2023-12-22T21:00:54;5.20;99.90
13205;DHT22;6667;52.634;9.226;2023-12-22T21:03:20;5.10;99.90
13205;DHT22;6667;52.634;9.226;2023-12-22T21:05:48;5.10;99.90
13205;DHT22;6667;52.634;9.226;2023-12-22T21:08:15;5.10;99.90
13205;DHT22;6667;52.634;9.226;2023-12-22T21:10:41;5.10;99.90
13205;DHT22;6667;52.634;9.226;2023-12-22T21:13:09;5.10;99.90
13205;DHT22;6667;52.634;9.226;2023-12-22T21:15:35;5.00;99.90
13205;DHT22;6667;52.634;9.226;2023-12-22T21:18:03;5.00;99.90
13205;DHT22;6667;52.634;9.226;2023-12-22T21:20:29;5.00;99.90
13205;DHT22;6667;52.634;9.226;2023-12-22T21:22:57;4.90;99.90
13205;DHT22;6667;52.634;9.226;2023-12-22T21:25:24;4.90;99.90
13205;DHT22;6667;52.634;9.226;2023-12-22T21:27:51;4.90;99.90
13205;DHT22;6667;52.634;9.226;2023-12-22T21:30:17;4.90;99.90
13205;DHT22;6667;52.634;9.226;2023-12-22T21:32:44;4.90;99.90
13205;DHT22;6667;52.634;9.226;2023-12-22T21:35:10;4.90;99.90
13205;DHT22;6667;52.634;9.226;2023-12-22T21:37:37;4.80;99.90
13205;DHT22;6667;52.634;9.226;2023-12-22T21:40:06;4.80;99.90
13205;DHT22;6667;52.634;9.226;2023-12-22T21:42:34;4.80;99.90
13205;DHT22;6667;52.634;9.226;2023-12-22T21:45:03;4.80;99.90
13205;DHT22;6667;52.634;9.226;2023-12-22T21:47:30;4.70;99.90
13205;DHT22;6667;52.634;9.226;2023-12-22T21:49:56;4.70;99.90
13205;DHT22;6667;52.634;9.226;2023-12-22T21:52:23;4.70;99.90
13205;DHT22;6667;52.634;9.226;2023-12-22T21:54:50;4.70;99.90
13205;DHT22;6667;52.634;9.226;2023-12-22T21:57:18;4.60;99.90
13205;DHT22;6667;52.634;9.226;2023-12-22T21:59:45;4.60;99.90
13205;DHT22;6667;52.634;9.226;2023-12-22T22:02:11;4.60;99.90
13205;DHT22;6667;52.634;9.226;2023-12-22T22:04:39;4.70;99.90
13205;DHT22;6667;52.634;9.226;2023-12-22T22:07:06;4.60;99.90
13205;DHT22;6667;52.634;9.226;2023-12-22T22:09:32;4.70;99.90
13205;DHT22;6667;52.634;9.226;2023-12-22T22:11:59;4.70;99.90
13205;DHT22;6667;52.634;9.226;2023-12-22T22:14:27;4.60;99.90
13205;DHT22;6667;52.634;9.226;2023-12-22T22:16:53;4.60;99.90
13205;DHT22;6667;52.634;9.226;2023-12-22T22:19:20;4.60;99.90
13205;DHT22;6667;52.634;9.226;2023-12-22T22:21:47;4.50;99.90
13205;DHT22;6667;52.634;9.226;2023-12-22T22:24:15;4.50;99.90
13205;DHT22;6667;52.634;9.226;2023-12-22T22:26:41;4.50;99.90
13205;DHT22;6667;52.634;9.226;2023-12-22T22:29:08;4.40;99.90
13205;DHT22;6667;52.634;9.226;2023-12-22T22:31:40;4.40;99.90
13205;DHT22;6667;52.634;9.226;2023-12-22T22:34:06;4.30;99.90
13205;DHT22;6667;52.634;9.226;2023-12-22T22:36:33;4.30;99.90
13205;DHT22;6667;52.634;9.226;2023-12-22T22:39:01;4.30;99.90
13205;DHT22;6667;52.634;9.226;2023-12-22T22:41:27;4.30;99.90
13205;DHT22;6667;52.634;9.226;2023-12-22T22:43:54;4.30;99.90
